createdAt,value
2018-09-09T00:02:01.793Z,101499.83
2018-09-09T00:04:31.194Z,101499.83
2018-09-09T00:07:00.493Z,101506.56
2018-09-09T00:09:35.142Z,101503.88
2018-09-09T00:12:04.600Z,101494.67
2018-09-09T00:14:34.985Z,101500.33
2018-09-09T00:17:04.305Z,101501.66
2018-09-09T00:19:33.629Z,101507.28
2018-09-09T00:22:03.106Z,101512.55
2018-09-09T00:24:32.438Z,101507.30
2018-09-09T00:27:01.800Z,101513.41
2018-09-09T00:29:31.093Z,101504.34
2018-09-09T00:32:00.812Z,101510.11
2018-09-09T00:34:30.194Z,101514.02
2018-09-09T00:36:59.495Z,101508.27
2018-09-09T00:39:29.080Z,101514.52
2018-09-09T00:41:58.416Z,101515.73
2018-09-09T00:44:27.826Z,101515.24
2018-09-09T00:46:57.220Z,101509.25
2018-09-09T00:49:32.173Z,101509.25
2018-09-09T00:52:07.012Z,101513.30
2018-09-09T00:54:36.420Z,101509.23
2018-09-09T00:57:05.957Z,101506.91
2018-09-09T00:59:35.366Z,101498.48
2018-09-09T01:02:05.670Z,101497.50
2018-09-09T01:04:35.595Z,101497.63
2018-09-09T01:07:05.005Z,101497.35
2018-09-09T01:09:34.729Z,101494.27
2018-09-09T01:12:04.772Z,101490.73
2018-09-09T01:14:34.871Z,101500.75
2018-09-09T01:17:04.146Z,101504.66
2018-09-09T01:19:33.479Z,101498.70
2018-09-09T01:22:03.090Z,101500.80
2018-09-09T01:24:32.703Z,101499.43
2018-09-09T01:27:02.011Z,101504.08
2018-09-09T01:29:31.778Z,101496.95
2018-09-09T01:32:01.129Z,101494.39
2018-09-09T01:34:30.406Z,101498.06
2018-09-09T01:36:59.809Z,101494.52
2018-09-09T01:39:29.129Z,101494.62
2018-09-09T01:41:58.584Z,101495.61
2018-09-09T01:44:28.042Z,101499.03
2018-09-09T01:46:57.345Z,101495.97
2018-09-09T01:49:26.746Z,101500.09
2018-09-09T01:51:56.222Z,101499.73
2018-09-09T01:54:25.643Z,101494.72
2018-09-09T01:56:55.206Z,101495.33
2018-09-09T01:59:24.644Z,101496.83
2018-09-09T02:01:54.475Z,101492.02
2018-09-09T02:04:23.926Z,101497.19
2018-09-09T02:06:53.840Z,101494.02
2018-09-09T02:09:23.286Z,101491.80
2018-09-09T02:11:52.863Z,101491.31
2018-09-09T02:14:22.386Z,101489.84
2018-09-09T02:16:51.965Z,101481.76
2018-09-09T02:19:21.367Z,101486.28
2018-09-09T02:21:50.896Z,101475.77
2018-09-09T02:24:20.297Z,101483.45
2018-09-09T02:26:49.701Z,101482.09
2018-09-09T02:29:19.741Z,101487.02
2018-09-09T02:31:50.273Z,101481.24
2018-09-09T02:34:19.734Z,101478.95
2018-09-09T02:36:49.177Z,101480.05
2018-09-09T02:39:18.665Z,101482.47
2018-09-09T02:41:47.999Z,101481.13
2018-09-09T02:44:17.266Z,101478.95
2018-09-09T02:46:46.632Z,101472.20
2018-09-09T02:49:15.854Z,101473.67
2018-09-09T02:51:45.724Z,101480.24
2018-09-09T02:54:15.055Z,101472.42
2018-09-09T02:56:44.765Z,101471.08
2018-09-09T02:59:14.268Z,101476.33
2018-09-09T03:01:44.287Z,101466.52
2018-09-09T03:04:13.497Z,101474.11
2018-09-09T03:06:42.831Z,101474.34
2018-09-09T03:09:12.187Z,101469.18
2018-09-09T03:11:41.413Z,101477.37
2018-09-09T03:14:11.498Z,101479.33
2018-09-09T03:16:40.739Z,101472.81
2018-09-09T03:19:10.020Z,101481.28
2018-09-09T03:21:39.660Z,101474.28
2018-09-09T03:24:08.911Z,101484.42
2018-09-09T03:26:38.209Z,101471.80
2018-09-09T03:29:08.157Z,101482.95
2018-09-09T03:31:37.577Z,101479.41
2018-09-09T03:34:07.149Z,101483.97
2018-09-09T03:36:37.763Z,101484.06
2018-09-09T03:39:09.071Z,101485.31
2018-09-09T03:41:38.829Z,101471.88
2018-09-09T03:44:08.125Z,101484.95
2018-09-09T03:46:37.465Z,101475.41
2018-09-09T03:49:06.833Z,101484.58
2018-09-09T03:51:36.553Z,101488.04
2018-09-09T03:54:05.856Z,101484.70
2018-09-09T03:56:36.359Z,101483.97
2018-09-09T03:59:05.870Z,101484.09
2018-09-09T04:01:35.077Z,101479.08
2018-09-09T04:04:04.773Z,101481.80
2018-09-09T04:06:33.993Z,101490.33
2018-09-09T04:09:03.390Z,101484.58
2018-09-09T04:11:33.536Z,101488.25
2018-09-09T04:14:02.820Z,101488.73
2018-09-09T04:16:32.078Z,101495.22
2018-09-09T04:19:01.806Z,101497.94
2018-09-09T04:21:31.061Z,101501.33
2018-09-09T04:24:00.317Z,101492.92
2018-09-09T04:26:30.157Z,101487.39
2018-09-09T04:28:59.459Z,101493.88
2018-09-09T04:31:28.820Z,101501.53
2018-09-09T04:33:58.778Z,101491.75
2018-09-09T04:36:28.177Z,101496.19
2018-09-09T04:38:57.496Z,101504.50
2018-09-09T04:41:26.841Z,101500.72
2018-09-09T04:43:56.521Z,101504.55
2018-09-09T04:46:25.879Z,101514.60
2018-09-09T04:48:56.114Z,101519.38
2018-09-09T04:51:25.634Z,101515.79
2018-09-09T04:53:54.980Z,101515.95
2018-09-09T04:56:25.080Z,101514.73
2018-09-09T04:58:54.854Z,101513.26
2018-09-09T05:01:24.326Z,101521.33
2018-09-09T05:03:53.857Z,101527.47
2018-09-09T05:06:23.406Z,101529.83
2018-09-09T05:08:53.097Z,101532.36
2018-09-09T05:11:22.654Z,101531.17
2018-09-09T05:13:52.597Z,101525.91
2018-09-09T05:16:22.584Z,101535.45
2018-09-09T05:18:53.320Z,101529.92
2018-09-09T05:21:23.025Z,101532.86
2018-09-09T05:23:52.493Z,101531.14
2018-09-09T05:26:22.647Z,101535.30
2018-09-09T05:28:52.403Z,101537.13
2018-09-09T05:31:22.624Z,101538.84
2018-09-09T05:33:52.240Z,101535.66
2018-09-09T05:36:22.380Z,101542.64
2018-09-09T05:38:52.725Z,101537.02
2018-09-09T05:41:22.949Z,101542.67
2018-09-09T05:43:52.880Z,101532.27
2018-09-09T05:46:23.105Z,101533.38
2018-09-09T05:48:53.566Z,101530.70
2018-09-09T05:51:23.557Z,101529.97
2018-09-09T05:53:53.212Z,101528.77
2018-09-09T05:56:24.254Z,101534.16
2018-09-09T05:58:53.910Z,101529.14
2018-09-09T06:01:23.682Z,101533.69
2018-09-09T06:03:54.348Z,101535.19
2018-09-09T06:06:24.875Z,101535.67
2018-09-09T06:08:54.939Z,101539.34
2018-09-09T06:11:24.554Z,101532.86
2018-09-09T06:13:54.584Z,101538.73
2018-09-09T06:16:24.065Z,101533.23
2018-09-09T06:18:53.972Z,101533.12
2018-09-09T06:21:23.748Z,101532.72
2018-09-09T06:23:53.370Z,101532.48
2018-09-09T06:26:23.065Z,101538.75
2018-09-09T06:28:52.685Z,101532.98
2018-09-09T06:31:22.215Z,101537.66
2018-09-09T06:33:51.775Z,101540.59
2018-09-09T06:36:21.497Z,101536.53
2018-09-09T06:38:51.703Z,101539.36
2018-09-09T06:41:21.356Z,101541.58
2018-09-09T06:43:51.241Z,101535.06
2018-09-09T06:46:21.800Z,101537.63
2018-09-09T06:48:52.645Z,101536.28
2018-09-09T06:51:22.275Z,101542.80
2018-09-09T06:53:52.981Z,101539.22
2018-09-09T06:56:22.661Z,101545.94
2018-09-09T06:58:52.374Z,101545.20
2018-09-09T07:01:22.251Z,101545.43
2018-09-09T07:03:52.457Z,101543.72
2018-09-09T07:06:22.049Z,101543.82
2018-09-09T07:08:51.677Z,101554.48
2018-09-09T07:11:21.529Z,101552.50
2018-09-09T07:13:51.327Z,101552.73
2018-09-09T07:16:21.010Z,101552.09
2018-09-09T07:18:51.945Z,101549.77
2018-09-09T07:21:22.432Z,101551.02
2018-09-09T07:23:52.270Z,101549.50
2018-09-09T07:26:22.053Z,101557.58
2018-09-09T07:28:51.533Z,101547.73
2018-09-09T07:31:21.426Z,101541.80
2018-09-09T07:33:53.235Z,101537.89
2018-09-09T07:36:23.073Z,101539.19
2018-09-09T07:38:52.729Z,101544.45
2018-09-09T07:41:22.641Z,101551.14
2018-09-09T07:43:53.067Z,101553.15
2018-09-09T07:46:22.904Z,101559.69
2018-09-09T07:48:52.930Z,101562.45
2018-09-09T07:51:22.529Z,101563.61
2018-09-09T07:53:52.270Z,101561.34
2018-09-09T07:56:21.922Z,101568.19
2018-09-09T07:58:52.531Z,101566.34
2018-09-09T08:01:22.509Z,101568.30
2018-09-09T08:03:52.559Z,101565.16
2018-09-09T08:06:22.304Z,101567.69
2018-09-09T08:08:51.967Z,101572.48
2018-09-09T08:11:22.748Z,101574.94
2018-09-09T08:13:52.479Z,101574.42
2018-09-09T08:16:22.069Z,101570.51
2018-09-09T08:18:52.318Z,101573.34
2018-09-09T08:21:23.073Z,101567.23
2018-09-09T08:23:52.809Z,101572.44
2018-09-09T08:26:22.766Z,101570.45
2018-09-09T08:28:52.523Z,101571.16
2018-09-09T08:31:23.122Z,101581.12
2018-09-09T08:33:54.720Z,101578.95
2018-09-09T08:36:24.936Z,101580.36
2018-09-09T08:38:54.905Z,101575.16
2018-09-09T08:41:24.712Z,101569.75
2018-09-09T08:43:55.737Z,101568.34
2018-09-09T08:46:26.399Z,101571.89
2018-09-09T08:48:55.927Z,101577.08
2018-09-09T08:51:26.915Z,101574.80
2018-09-09T08:53:56.996Z,101568.70
2018-09-09T08:56:26.540Z,101573.93
2018-09-09T08:58:56.142Z,101575.00
2018-09-09T09:01:26.568Z,101570.21
2018-09-09T09:03:57.030Z,101566.13
2018-09-09T09:06:26.498Z,101569.19
2018-09-09T09:08:57.542Z,101573.39
2018-09-09T09:11:28.822Z,101574.72
2018-09-09T09:13:59.365Z,101564.30
2018-09-09T09:16:29.451Z,101573.30
2018-09-09T09:18:59.370Z,101571.88
2018-09-09T09:21:29.569Z,101567.87
2018-09-09T09:24:01.367Z,101566.50
2018-09-09T09:26:31.890Z,101562.78
2018-09-09T09:29:01.290Z,101566.78
2018-09-09T09:31:31.076Z,101564.06
2018-09-09T09:34:05.738Z,101564.67
2018-09-09T09:36:40.877Z,101567.42
2018-09-09T09:39:10.255Z,101568.80
2018-09-09T09:41:40.055Z,101570.24
2018-09-09T09:44:09.517Z,101561.89
2018-09-09T09:46:39.156Z,101567.52
2018-09-09T09:49:08.453Z,101565.41
2018-09-09T09:51:37.720Z,101562.82
2018-09-09T09:54:07.890Z,101572.29
2018-09-09T09:56:37.097Z,101575.99
2018-09-09T09:59:06.413Z,101573.53
2018-09-09T10:01:35.822Z,101579.97
2018-09-09T10:04:05.325Z,101575.50
2018-09-09T10:06:34.708Z,101577.31
2018-09-09T10:09:05.084Z,101577.88
2018-09-09T10:11:34.325Z,101581.72
2018-09-09T10:14:03.717Z,101586.47
2018-09-09T10:16:33.156Z,101578.97
2018-09-09T10:19:02.590Z,101584.41
2018-09-09T10:21:31.999Z,101574.56
2018-09-09T10:24:02.353Z,101575.39
2018-09-09T10:26:32.123Z,101577.42
2018-09-09T10:29:01.772Z,101583.28
2018-09-09T10:31:31.191Z,101584.94
2018-09-09T10:34:00.953Z,101586.28
2018-09-09T10:36:30.699Z,101577.39
2018-09-09T10:39:00.065Z,101579.14
2018-09-09T10:41:29.561Z,101582.05
2018-09-09T10:43:59.103Z,101584.91
2018-09-09T10:46:29.410Z,101594.15
2018-09-09T10:49:01.291Z,101594.76
2018-09-09T10:51:30.774Z,101591.83
2018-09-09T10:54:01.862Z,101584.72
2018-09-09T10:56:32.104Z,101592.58
2018-09-09T10:59:01.427Z,101592.92
2018-09-09T11:01:31.357Z,101591.59
2018-09-09T11:04:08.566Z,101594.31
2018-09-09T11:06:41.191Z,101597.71
2018-09-09T11:09:12.178Z,101603.53
2018-09-09T11:11:42.130Z,101614.38
2018-09-09T11:14:13.363Z,101607.57
2018-09-09T11:16:45.067Z,101609.95
2018-09-09T11:19:14.633Z,101601.78
2018-09-09T11:21:45.260Z,101611.30
2018-09-09T11:24:16.433Z,101605.47
2018-09-09T11:26:46.496Z,101604.16
2018-09-09T11:29:15.967Z,101602.45
2018-09-09T11:31:46.552Z,101602.51
2018-09-09T11:34:16.885Z,101604.17
2018-09-09T11:36:46.911Z,101610.63
2018-09-09T11:39:16.990Z,101607.77
2018-09-09T11:41:46.274Z,101600.80
2018-09-09T11:44:17.079Z,101603.88
2018-09-09T11:46:46.572Z,101610.84
2018-09-09T11:49:15.832Z,101607.80
2018-09-09T11:51:46.055Z,101613.45
2018-09-09T11:54:15.540Z,101611.81
2018-09-09T11:56:44.758Z,101616.43
2018-09-09T11:59:16.285Z,101610.60
2018-09-09T12:01:46.392Z,101618.73
2018-09-09T12:04:17.890Z,101617.20
2018-09-09T12:06:47.219Z,101618.45
2018-09-09T12:09:16.486Z,101621.75
2018-09-09T12:11:46.188Z,101613.75
2018-09-09T12:14:16.620Z,101613.19
2018-09-09T12:16:49.588Z,101608.02
2018-09-09T12:19:20.021Z,101609.74
2018-09-09T12:21:49.626Z,101598.12
2018-09-09T12:24:19.993Z,101598.27
2018-09-09T12:26:49.749Z,101605.94
2018-09-09T12:29:19.244Z,101605.22
2018-09-09T12:31:49.270Z,101611.48
2018-09-09T12:34:19.245Z,101605.07
2018-09-09T12:36:48.652Z,101593.89
2018-09-09T12:39:18.066Z,101600.72
2018-09-09T12:41:48.651Z,101595.73
2018-09-09T12:44:24.657Z,101585.17
2018-09-09T12:49:59.403Z,101589.67
2018-09-09T12:52:29.650Z,101591.82
2018-09-09T12:55:00.894Z,101593.16
2018-09-09T12:57:32.278Z,101597.09
2018-09-09T13:00:03.006Z,101597.84
2018-09-09T13:02:32.429Z,101604.45
2018-09-09T13:05:01.952Z,101597.13
2018-09-09T13:07:31.665Z,101596.05
2018-09-09T13:10:01.867Z,101597.63
2018-09-09T13:12:36.446Z,101594.77
2018-09-09T13:15:07.474Z,101594.25
2018-09-09T13:17:36.858Z,101590.16
2018-09-09T13:20:08.174Z,101601.80
2018-09-09T13:22:39.245Z,101598.40
2018-09-09T13:25:14.048Z,101590.99
2018-09-09T13:30:43.037Z,101593.66
2018-09-09T13:33:15.133Z,101597.03
2018-09-09T13:35:46.505Z,101603.47
2018-09-09T13:38:15.997Z,101601.31
2018-09-09T13:40:45.496Z,101608.16
2018-09-09T13:43:16.143Z,101603.06
2018-09-09T13:45:45.442Z,101601.49
2018-09-09T13:48:14.777Z,101603.06
2018-09-09T13:50:44.510Z,101602.52
2018-09-09T13:53:13.858Z,101605.98
2018-09-09T13:55:43.218Z,101606.12
2018-09-09T13:58:14.268Z,101604.55
2018-09-09T14:00:43.705Z,101604.50
2018-09-09T14:03:13.047Z,101607.30
2018-09-09T14:05:42.863Z,101614.99
2018-09-09T14:08:12.420Z,101613.70
2018-09-09T14:10:41.829Z,101618.72
2018-09-09T14:13:11.173Z,101623.48
2018-09-09T14:15:40.560Z,101624.30
2018-09-09T14:18:09.903Z,101617.52
2018-09-09T14:20:39.664Z,101621.44
2018-09-09T14:23:09.015Z,101626.83
2018-09-09T14:25:39.399Z,101626.65
2018-09-09T14:28:08.892Z,101627.85
2018-09-09T14:30:38.175Z,101624.36
2018-09-09T14:33:07.789Z,101620.36
2018-09-09T14:35:37.139Z,101627.30
2018-09-09T14:38:06.754Z,101623.42
2018-09-09T14:40:36.243Z,101627.83
2018-09-09T14:43:08.277Z,101624.87
2018-09-09T14:45:37.552Z,101622.80
2018-09-09T14:48:06.855Z,101629.35
2018-09-09T14:50:36.889Z,101633.70
2018-09-09T14:53:06.401Z,101632.14
2018-09-09T14:55:35.594Z,101628.73
2018-09-09T14:58:05.147Z,101627.51
2018-09-09T15:00:37.245Z,101626.39
2018-09-09T15:03:06.983Z,101633.65
2018-09-09T15:05:36.409Z,101631.00
2018-09-09T15:08:05.912Z,101633.19
2018-09-09T15:10:37.263Z,101635.77
2018-09-09T15:13:06.825Z,101638.59
2018-09-09T15:15:46.161Z,101642.44
2018-09-09T15:18:17.978Z,101646.23
2018-09-09T15:20:50.557Z,101643.28
2018-09-09T15:23:23.245Z,101642.67
2018-09-09T15:25:55.801Z,101639.28
2018-09-09T15:28:25.547Z,101642.52
2018-09-09T15:30:55.374Z,101640.66
2018-09-09T15:33:28.031Z,101634.02
2018-09-09T15:35:57.964Z,101637.08
2018-09-09T15:38:29.162Z,101631.13
2018-09-09T15:41:00.570Z,101629.77
2018-09-09T15:43:32.809Z,101635.22
2018-09-09T15:46:16.974Z,101636.77
2018-09-09T15:48:46.361Z,101634.20
2018-09-09T15:51:16.681Z,101638.91
2018-09-09T15:53:45.987Z,101643.65
2018-09-09T15:56:15.363Z,101640.63
2018-09-09T15:58:44.864Z,101642.64
2018-09-09T16:01:14.502Z,101636.19
2018-09-09T16:03:43.873Z,101630.77
2018-09-09T16:06:13.149Z,101644.37
2018-09-09T16:08:42.440Z,101639.45
2018-09-09T16:11:12.593Z,101640.11
2018-09-09T16:13:44.178Z,101640.11
2018-09-09T16:16:14.062Z,101641.30
2018-09-09T16:18:44.328Z,101644.36
2018-09-09T16:21:14.712Z,101638.20
2018-09-09T16:23:44.580Z,101639.05
2018-09-09T16:26:21.560Z,101643.31
2018-09-09T16:28:53.750Z,101643.34
2018-09-09T16:31:23.868Z,101640.25
2018-09-09T16:33:55.499Z,101640.08
2018-09-09T16:36:27.618Z,101640.88
2018-09-09T16:38:59.657Z,101640.44
2018-09-09T16:41:30.993Z,101638.97
2018-09-09T16:44:00.456Z,101640.44
2018-09-09T16:46:29.945Z,101634.48
2018-09-09T16:49:02.677Z,101634.66
2018-09-09T16:51:33.573Z,101635.33
2018-09-09T16:54:03.607Z,101637.03
2018-09-09T16:56:33.584Z,101636.31
2018-09-09T17:01:52.841Z,101628.86
2018-09-09T17:04:41.497Z,101628.19
2018-09-09T17:07:12.886Z,101636.95
2018-09-09T17:09:42.610Z,101632.34
2018-09-09T17:12:21.375Z,101630.99
2018-09-09T17:14:51.749Z,101631.17
2018-09-09T17:17:22.409Z,101630.48
2018-09-09T17:19:52.470Z,101631.67
2018-09-09T17:22:23.648Z,101635.92
2018-09-09T17:24:54.049Z,101622.89
2018-09-09T17:27:23.881Z,101627.59
2018-09-09T17:30:02.333Z,101623.45
2018-09-09T17:32:33.340Z,101620.46
2018-09-09T17:35:03.910Z,101621.09
2018-09-09T17:37:33.526Z,101617.16
2018-09-09T17:40:04.722Z,101614.32
2018-09-09T17:42:34.435Z,101611.91
2018-09-09T17:45:03.745Z,101615.94
2018-09-09T17:47:37.403Z,101622.23
2018-09-09T17:50:07.973Z,101623.58
2018-09-09T17:52:37.694Z,101632.59
2018-09-09T17:55:07.213Z,101635.10
2018-09-09T17:57:38.203Z,101637.31
2018-09-09T18:00:12.158Z,101635.53
2018-09-09T18:02:41.608Z,101635.69
2018-09-09T18:05:16.969Z,101636.87
2018-09-09T18:07:46.537Z,101643.44
2018-09-09T18:10:16.148Z,101645.95
2018-09-09T18:12:45.790Z,101648.66
2018-09-09T18:15:26.676Z,101646.73
2018-09-09T18:17:57.472Z,101644.38
2018-09-09T18:20:29.461Z,101644.00
2018-09-09T18:22:59.863Z,101643.94
2018-09-09T18:25:30.279Z,101647.00
2018-09-09T18:28:00.155Z,101639.70
2018-09-09T18:30:29.640Z,101647.34
2018-09-09T18:32:59.457Z,101647.00
2018-09-09T18:35:29.041Z,101644.63
2018-09-09T18:37:58.658Z,101641.28
2018-09-09T18:40:29.616Z,101644.63
2018-09-09T18:43:00.955Z,101637.15
2018-09-09T18:45:30.346Z,101640.02
2018-09-09T18:47:59.857Z,101640.53
2018-09-09T18:50:30.077Z,101637.22
2018-09-09T18:52:59.495Z,101631.05
2018-09-09T18:55:29.084Z,101630.98
2018-09-09T18:57:59.161Z,101622.63
2018-09-09T19:00:28.738Z,101627.60
2018-09-09T19:02:58.366Z,101630.25
2018-09-09T19:05:28.561Z,101633.52
2018-09-09T19:07:58.374Z,101635.14
2018-09-09T19:10:28.450Z,101636.73
2018-09-09T19:12:58.387Z,101635.48
2018-09-09T19:15:28.525Z,101640.61
2018-09-09T19:17:58.136Z,101641.27
2018-09-09T19:20:27.642Z,101631.66
2018-09-09T19:22:57.255Z,101636.09
2018-09-09T19:25:26.898Z,101632.84
2018-09-09T19:27:56.915Z,101635.35
2018-09-09T19:30:27.811Z,101638.19
2018-09-09T19:32:57.653Z,101642.35
2018-09-09T19:35:27.372Z,101637.44
2018-09-09T19:37:57.493Z,101636.64
2018-09-09T19:40:27.365Z,101637.60
2018-09-09T19:42:57.476Z,101635.16
2018-09-09T19:45:27.020Z,101631.05
2018-09-09T19:47:56.720Z,101639.83
2018-09-09T19:50:27.318Z,101634.45
2018-09-09T19:52:56.919Z,101640.47
2018-09-09T19:55:26.895Z,101640.58
2018-09-09T19:57:56.693Z,101639.23
2018-09-09T20:00:27.210Z,101634.11
2018-09-09T20:02:56.803Z,101634.47
2018-09-09T20:05:27.680Z,101633.63
2018-09-09T20:07:59.231Z,101631.27
2018-09-09T20:10:28.840Z,101629.06
2018-09-09T20:12:59.060Z,101636.57
2018-09-09T20:15:30.000Z,101632.50
2018-09-09T20:18:00.589Z,101624.29
2018-09-09T20:20:31.441Z,101634.27
2018-09-09T20:23:01.746Z,101633.91
2018-09-09T20:25:31.458Z,101631.66
2018-09-09T20:28:00.962Z,101630.06
2018-09-09T20:30:30.536Z,101630.21
2018-09-09T20:33:00.225Z,101624.59
2018-09-09T20:35:30.013Z,101625.50
2018-09-09T20:37:59.404Z,101615.94
2018-09-09T20:40:28.717Z,101613.02
2018-09-09T20:43:04.466Z,101623.66
2018-09-09T20:45:33.830Z,101622.36
2018-09-09T20:48:03.085Z,101625.89
2018-09-09T20:50:32.384Z,101617.94
2018-09-09T20:53:01.882Z,101619.94
2018-09-09T20:55:31.279Z,101616.79
2018-09-09T20:58:02.277Z,101619.20
2018-09-09T21:00:31.830Z,101620.44
2018-09-09T21:03:01.229Z,101611.46
2018-09-09T21:05:30.724Z,101610.38
2018-09-09T21:08:00.196Z,101612.38
2018-09-09T21:10:29.909Z,101609.72
2018-09-09T21:12:59.630Z,101608.25
2018-09-09T21:15:30.593Z,101601.98
2018-09-09T21:18:00.335Z,101604.69
2018-09-09T21:20:32.463Z,101598.53
2018-09-09T21:23:01.944Z,101597.27
2018-09-09T21:25:31.448Z,101604.75
2018-09-09T21:28:01.093Z,101602.39
2018-09-09T21:30:30.679Z,101599.39
2018-09-09T21:33:00.529Z,101595.63
2018-09-09T21:35:30.015Z,101597.83
2018-09-09T21:38:00.649Z,101591.36
2018-09-09T21:40:30.073Z,101597.42
2018-09-09T21:43:00.416Z,101592.56
2018-09-09T21:45:30.680Z,101599.39
2018-09-09T21:48:00.589Z,101600.04
2018-09-09T21:50:30.325Z,101594.56
2018-09-09T21:53:00.649Z,101600.27
2018-09-09T21:55:30.040Z,101597.27
2018-09-09T21:57:59.678Z,101595.41
2018-09-09T22:00:29.665Z,101588.30
2018-09-09T22:02:59.453Z,101591.41
2018-09-09T22:05:29.064Z,101593.05
2018-09-09T22:07:58.697Z,101585.02
2018-09-09T22:10:29.429Z,101585.73
2018-09-09T22:13:09.457Z,101581.22
2018-09-09T22:15:38.706Z,101575.03
2018-09-09T22:18:08.026Z,101578.39
2018-09-09T22:20:37.486Z,101575.94
2018-09-09T22:23:06.885Z,101571.88
2018-09-09T22:25:37.622Z,101567.67
2018-09-09T22:28:08.679Z,101562.34
2018-09-09T22:30:37.944Z,101560.93
2018-09-09T22:33:07.425Z,101556.92
2018-09-09T22:35:37.945Z,101556.48
2018-09-09T22:38:07.499Z,101552.81
2018-09-09T22:40:37.402Z,101553.78
2018-09-09T22:43:06.848Z,101560.78
2018-09-09T22:45:36.160Z,101560.99
2018-09-09T22:48:05.564Z,101556.23
2018-09-09T22:50:35.110Z,101557.94
2018-09-09T22:53:04.547Z,101548.96
2018-09-09T22:55:34.014Z,101552.72
2018-09-09T22:58:04.342Z,101557.77
2018-09-09T23:00:34.156Z,101551.16
2018-09-09T23:03:03.480Z,101552.20
2018-09-09T23:05:32.903Z,101555.26
2018-09-09T23:08:02.794Z,101550.78
2018-09-09T23:10:32.090Z,101547.94
2018-09-09T23:13:02.212Z,101550.92
2018-09-09T23:15:32.440Z,101546.17
2018-09-09T23:18:02.038Z,101537.49
2018-09-09T23:20:32.691Z,101529.56
2018-09-09T23:23:02.120Z,101527.05
2018-09-09T23:25:31.509Z,101523.34
2018-09-09T23:28:01.070Z,101526.65
2018-09-09T23:30:30.510Z,101520.53
2018-09-09T23:32:59.895Z,101527.36
2018-09-09T23:35:29.425Z,101513.20
2018-09-09T23:37:58.988Z,101517.11
2018-09-09T23:40:28.552Z,101516.26
2018-09-09T23:42:58.773Z,101517.96
2018-09-09T23:45:28.904Z,101520.41
2018-09-09T23:47:58.255Z,101517.63
2018-09-09T23:50:27.813Z,101516.13
2018-09-09T23:52:57.315Z,101517.38
2018-09-09T23:55:26.821Z,101519.32
2018-09-09T23:57:57.269Z,101514.05
